createdAt,value
2019-03-22T00:01:23.362Z,12.70
2019-03-22T00:03:53.501Z,13.07
2019-03-22T00:06:23.510Z,12.60
2019-03-22T00:08:53.521Z,13.17
2019-03-22T00:11:23.403Z,15.57
2019-03-22T00:13:53.306Z,17.60
2019-03-22T00:16:23.346Z,18.50
2019-03-22T00:18:53.386Z,19.83
2019-03-22T00:21:23.360Z,19.67
2019-03-22T00:23:53.580Z,18.20
2019-03-22T00:26:23.649Z,24.40
2019-03-22T00:28:53.772Z,24.20
2019-03-22T00:31:23.872Z,25.10
2019-03-22T00:33:56.115Z,27.63
2019-03-22T00:36:26.116Z,28.20
2019-03-22T00:38:56.490Z,27.33
2019-03-22T00:41:26.416Z,27.17
2019-03-22T00:43:56.385Z,29.03
2019-03-22T00:46:26.401Z,27.30
2019-03-22T00:48:56.319Z,25.67
2019-03-22T00:51:26.389Z,23.63
2019-03-22T00:53:56.469Z,26.57
2019-03-22T00:56:27.737Z,25.13
2019-03-22T00:58:57.660Z,27.27
2019-03-22T01:01:27.658Z,24.67
2019-03-22T01:03:59.427Z,25.60
2019-03-22T01:06:31.146Z,25.17
2019-03-22T01:09:01.025Z,24.13
2019-03-22T01:11:30.983Z,24.70
2019-03-22T01:14:01.010Z,22.30
2019-03-22T01:16:32.832Z,23.30
2019-03-22T01:19:04.577Z,22.10
2019-03-22T01:21:34.559Z,22.57
2019-03-22T01:24:04.457Z,22.17
2019-03-22T01:26:34.507Z,23.07
2019-03-22T01:29:04.604Z,21.67
2019-03-22T01:31:34.601Z,21.33
2019-03-22T01:34:06.453Z,20.40
2019-03-22T01:36:38.948Z,19.17
2019-03-22T01:39:08.928Z,20.20
2019-03-22T01:41:40.089Z,19.63
2019-03-22T01:44:11.417Z,20.57
2019-03-22T01:47:00.231Z,19.60
2019-03-22T01:49:30.140Z,18.73
2019-03-22T01:52:00.143Z,19.73
2019-03-22T01:54:30.492Z,16.43
2019-03-22T01:57:00.463Z,17.47
2019-03-22T01:59:30.581Z,16.37
2019-03-22T02:02:01.732Z,16.23
2019-03-22T02:04:31.639Z,16.23
2019-03-22T02:07:01.693Z,17.00
2019-03-22T02:09:31.742Z,17.50
2019-03-22T02:12:01.872Z,18.00
2019-03-22T02:14:33.302Z,17.57
2019-03-22T02:17:03.257Z,18.83
2019-03-22T02:19:35.143Z,18.53
2019-03-22T02:22:05.128Z,17.57
2019-03-22T02:24:35.152Z,17.30
2019-03-22T02:27:06.617Z,16.87
2019-03-22T02:29:37.755Z,16.57
2019-03-22T02:32:07.778Z,16.60
2019-03-22T02:34:37.895Z,17.70
2019-03-22T02:37:08.551Z,17.03
2019-03-22T02:39:38.621Z,16.97
2019-03-22T02:42:08.707Z,16.87
2019-03-22T02:44:40.881Z,16.33
2019-03-22T02:47:10.751Z,16.43
2019-03-22T02:49:40.738Z,16.77
2019-03-22T02:52:13.627Z,16.10
2019-03-22T02:54:44.867Z,16.73
2019-03-22T02:57:14.825Z,15.33
2019-03-22T02:59:44.989Z,16.97
2019-03-22T03:02:15.078Z,15.53
2019-03-22T03:04:45.045Z,16.47
2019-03-22T03:07:15.147Z,15.80
2019-03-22T03:09:45.147Z,15.33
2019-03-22T03:12:15.126Z,15.83
2019-03-22T03:14:45.158Z,15.10
2019-03-22T03:17:17.851Z,15.83
2019-03-22T03:19:47.899Z,15.17
2019-03-22T03:22:17.908Z,14.50
2019-03-22T03:24:47.860Z,14.23
2019-03-22T03:27:17.835Z,15.30
2019-03-22T03:29:47.974Z,15.00
2019-03-22T03:32:18.081Z,14.57
2019-03-22T03:34:48.091Z,15.77
2019-03-22T03:37:18.064Z,14.43
2019-03-22T03:39:48.494Z,14.13
2019-03-22T03:42:20.599Z,13.83
2019-03-22T03:44:50.552Z,14.70
2019-03-22T03:47:20.477Z,14.37
2019-03-22T03:49:50.533Z,13.90
2019-03-22T03:52:21.896Z,14.40
2019-03-22T03:54:51.982Z,15.10
2019-03-22T03:57:21.942Z,13.23
2019-03-22T03:59:51.888Z,15.03
2019-03-22T04:02:21.827Z,13.73
2019-03-22T04:04:51.857Z,14.57
2019-03-22T04:07:21.760Z,14.60
2019-03-22T04:09:51.763Z,13.30
2019-03-22T04:12:21.746Z,13.97
2019-03-22T04:14:51.782Z,13.40
2019-03-22T04:17:23.703Z,13.27
2019-03-22T04:19:54.139Z,13.10
2019-03-22T04:22:24.240Z,12.93
2019-03-22T04:24:54.338Z,13.13
2019-03-22T04:27:24.383Z,13.77
2019-03-22T04:29:54.442Z,13.80
2019-03-22T04:32:26.235Z,12.77
2019-03-22T04:34:56.606Z,13.17
2019-03-22T04:37:26.596Z,12.53
2019-03-22T04:39:56.726Z,12.17
2019-03-22T04:42:26.985Z,12.57
2019-03-22T04:44:57.015Z,12.53
2019-03-22T04:47:27.208Z,13.00
2019-03-22T04:49:58.810Z,12.10
2019-03-22T04:52:29.073Z,11.53
2019-03-22T04:55:01.159Z,12.03
2019-03-22T04:57:51.474Z,12.33
2019-03-22T05:00:41.959Z,12.00
2019-03-22T05:03:13.573Z,11.80
2019-03-22T05:05:45.175Z,13.07
2019-03-22T05:08:35.433Z,12.23
2019-03-22T05:11:07.227Z,11.73
2019-03-22T05:13:39.644Z,11.10
2019-03-22T05:16:13.160Z,12.27
2019-03-22T05:18:46.640Z,12.30
2019-03-22T05:21:17.608Z,11.10
2019-03-22T05:23:49.395Z,9.40
2019-03-22T05:26:20.573Z,10.23
2019-03-22T05:28:51.696Z,10.70
2019-03-22T05:31:56.677Z,11.23
2019-03-22T05:34:28.386Z,10.90
2019-03-22T05:36:58.384Z,9.23
2019-03-22T05:39:28.352Z,10.73
2019-03-22T05:41:58.301Z,10.17
2019-03-22T05:44:28.357Z,9.50
2019-03-22T05:47:00.261Z,9.20
2019-03-22T05:49:30.262Z,9.20
2019-03-22T05:52:00.332Z,8.83
2019-03-22T05:54:32.131Z,9.70
2019-03-22T05:57:12.849Z,8.43
2019-03-22T05:59:42.395Z,8.80
2019-03-22T06:02:07.316Z,9.70
2019-03-22T06:04:37.232Z,10.03
2019-03-22T06:07:08.968Z,10.80
2019-03-22T06:09:57.708Z,10.77
2019-03-22T06:12:27.840Z,12.00
2019-03-22T06:14:57.760Z,12.60
2019-03-22T06:17:27.707Z,11.90
2019-03-22T06:19:57.658Z,10.57
2019-03-22T06:22:28.011Z,10.30
2019-03-22T06:24:57.983Z,9.47
2019-03-22T06:27:28.272Z,10.67
2019-03-22T06:29:58.188Z,10.43
2019-03-22T06:32:28.152Z,9.50
2019-03-22T06:34:58.109Z,10.03
2019-03-22T06:37:46.979Z,10.67
2019-03-22T06:40:17.140Z,10.37
2019-03-22T06:42:47.126Z,10.57
2019-03-22T06:45:17.493Z,9.97
2019-03-22T06:47:47.692Z,9.60
2019-03-22T06:50:17.729Z,10.40
2019-03-22T06:52:47.856Z,10.77
2019-03-22T06:55:17.896Z,10.90
2019-03-22T06:57:47.834Z,10.70
2019-03-22T07:00:17.768Z,10.37
2019-03-22T07:02:48.012Z,9.77
2019-03-22T07:05:17.949Z,9.97
2019-03-22T07:07:49.382Z,10.40
2019-03-22T07:10:19.367Z,10.80
2019-03-22T07:12:49.270Z,10.53
2019-03-22T07:15:19.237Z,10.63
2019-03-22T07:17:49.309Z,10.63
2019-03-22T07:20:19.303Z,11.43
2019-03-22T07:22:49.218Z,11.10
2019-03-22T07:25:19.339Z,10.23
2019-03-22T07:27:49.309Z,9.80
2019-03-22T07:30:20.327Z,10.93
2019-03-22T07:32:50.553Z,10.07
2019-03-22T07:35:20.469Z,11.53
2019-03-22T07:37:52.203Z,11.33
2019-03-22T07:40:22.169Z,12.80
2019-03-22T07:42:52.402Z,9.67
2019-03-22T07:45:22.430Z,12.40
2019-03-22T07:49:23.217Z,12.35
2019-03-22T07:51:52.415Z,11.97
2019-03-22T11:51:40.204Z,9.63
2019-03-22T11:54:10.350Z,6.83
2019-03-22T11:56:40.318Z,10.60
2019-03-22T11:59:11.844Z,8.23
2019-03-22T12:01:41.735Z,10.37
2019-03-22T12:04:11.986Z,10.67
2019-03-22T12:06:42.278Z,7.43
2019-03-22T12:09:12.165Z,10.57
2019-03-22T12:11:42.297Z,7.10
2019-03-22T12:14:12.326Z,9.00
2019-03-22T12:16:42.303Z,9.10
2019-03-22T12:19:13.723Z,6.43
2019-03-22T12:21:43.777Z,10.87
2019-03-22T12:24:15.051Z,10.73
2019-03-22T12:26:46.410Z,8.70
2019-03-22T12:29:17.578Z,11.33
2019-03-22T12:31:47.484Z,8.67
2019-03-22T12:34:17.532Z,12.03
2019-03-22T12:36:47.802Z,12.20
2019-03-22T12:39:17.699Z,10.30
2019-03-22T12:41:47.592Z,11.53
2019-03-22T12:44:17.690Z,11.17
2019-03-22T12:46:49.175Z,10.60
2019-03-22T12:49:21.152Z,11.87
2019-03-22T12:51:51.514Z,9.87
2019-03-22T12:54:23.487Z,12.10
2019-03-22T12:56:53.492Z,11.27
2019-03-22T12:59:25.284Z,11.83
2019-03-22T13:01:55.261Z,13.20
2019-03-22T13:04:26.390Z,11.63
2019-03-22T13:06:56.402Z,7.57
2019-03-22T13:09:28.156Z,13.47
2019-03-22T13:11:58.244Z,11.20
2019-03-22T13:14:28.233Z,13.83
2019-03-22T13:16:58.201Z,12.57
